METAR/TAF

Belfast City Airport
BELFAST HARBOUR
Metar
EGAC 170920Z AUTO VRB03KT 9999 NCD 03/02 Q1009

09:20 UTC

Wind: ° 3kt

Visibility: 9999 m

Sky:

Temp: 3 deg C / 37.4 deg F

Dewpoint: 2 deg C / 35.6 deg F

Pressure: 1009 hPa

TAF
TAF EGAC 170753Z 1709/1718 17007KT 9999 FEW014 BECMG 1711/1714 17018G30KT PROB30 TEMPO 1715/1718 7000 RA -RADZ BKN014
Belfast International Airport
BELFAST/ALDERGRO
Metar
EGAA 170920Z 16008KT 130V190 CAVOK 05/02 Q1008

09:20 UTC

Wind: 160° 8kt

Visibility:

Sky:

Temp: 5 deg C / 41 deg F

Dewpoint: 2 deg C / 35.6 deg F

Pressure: 1008 hPa

TAF
TAF EGAA 170457Z 1706/1806 18006KT 9999 FEW020 PROB30 TEMPO 1706/1708 BKN004 BECMG 1709/1712 16015G25KT PROB40 TEMPO 1712/1716 7000 RA -RADZ PROB30 TEMPO 1714/1724 BKN014 BECMG 1718/1721 17022G35KT TEMPO 1800/1806 22028G45KT 7000 RA PROB40 TEMPO 1800/1806 3000 +RA BKN014
Print Friendly, PDF & Email